Aérodrome :
LOGIN :

S'inscrire | Disclaimer

   EN    FR    IT 

 










Légende :    VFR   VFR Marginal   IFR   IFR Intensif   IFR Très Intensif
Visi : 
Plafond : 
>= 8 km
>= 3000ft
5 à 8 km
1000 à 3000 ft
1500m à 5 km
500 à 1000 ft
800 à 1500m
200 à 500 ft
< 800m
< 200 ft
Symboles :   Orages  Brouillard  Fortes neiges  Fortes précipitations  Vent > 20 kt
SIGMETs :   Divers  Orages  Givrage  Turbulence  Onde Orograph.  Cendres Volcan.






- Altitude de l'aérodrome : 17 ft
- Code IATA : MPL


LFMT - Montpellier Méditerranée

DERNIER METAR :
  • 030830Z AUTO 11004KT 060V160 CAVOK 22/19 Q1009 NOSIG

METARs EXPIRÉS :
  • 030800Z AUTO 08003KT 030V130 9999 FEW013 22/19 Q1009 NOSIG
  • 030730Z AUTO 07004KT 030V110 9999 FEW006 SCT013 22/18 Q1010 NOSIG
  • 030700Z AUTO 05004KT 010V070 9999 BKN005 21/19 Q1010 BECMG NSC
  • 030630Z AUTO 04006KT 010V070 9000 OVC004 19/18 Q1010 BECMG NSC

TAF TAF LFMT
Valide du 03 à 09h jusqu'au 04 à 09h UTC


030800Z 0309/0409 10005KT 9999 FEW013
BECMG 0310/0312 18014KT
BECMG 0322/0324 28010KT
PROB40
TEMPO 0321/0409 SHRA SCT045TCU BKN070
ATIS : +33 4 67 13 11 70



MET'MAP, la Météo Aéronautique d'un coup d'oeil ! - Copyright ORBIFLY Décembre 2007 - Disclaimer

ORBIFLY MET'MAP TEAM :

Programmation & Développement : Alexandra Zaïnal
Sur une idée originale de : Baudouin d'Aumeries
Assistance à la programmation : Marc-Olivier Méhu
Soutien technique & logistique : Manuel Goepfert

Contact : metmap@orbifly.com




SOURCES & CREDITS :

   NOAA